sensor_id;sensor_type;location;lat;lon;timestamp;temperature;humidity
12622;DHT22;6376;48.182;-1.644;2024-01-25T00:01:19;13.20;95.50
12622;DHT22;6376;48.182;-1.644;2024-01-25T00:03:45;13.20;95.60
12622;DHT22;6376;48.182;-1.644;2024-01-25T00:06:11;13.20;95.60
12622;DHT22;6376;48.182;-1.644;2024-01-25T00:08:36;13.20;95.50
12622;DHT22;6376;48.182;-1.644;2024-01-25T00:11:03;13.30;95.40
12622;DHT22;6376;48.182;-1.644;2024-01-25T00:13:29;13.20;95.60
12622;DHT22;6376;48.182;-1.644;2024-01-25T00:15:55;13.20;95.50
12622;DHT22;6376;48.182;-1.644;2024-01-25T00:18:20;13.20;95.40
12622;DHT22;6376;48.182;-1.644;2024-01-25T00:20:46;13.20;95.20
12622;DHT22;6376;48.182;-1.644;2024-01-25T00:23:12;13.20;95.40
12622;DHT22;6376;48.182;-1.644;2024-01-25T00:25:38;13.20;95.30
12622;DHT22;6376;48.182;-1.644;2024-01-25T00:28:04;13.20;95.40
12622;DHT22;6376;48.182;-1.644;2024-01-25T00:30:29;13.20;95.30
12622;DHT22;6376;48.182;-1.644;2024-01-25T00:32:56;13.20;95.40
12622;DHT22;6376;48.182;-1.644;2024-01-25T00:35:23;13.20;95.50
12622;DHT22;6376;48.182;-1.644;2024-01-25T00:37:49;13.20;95.30
12622;DHT22;6376;48.182;-1.644;2024-01-25T00:40:15;13.20;95.30
12622;DHT22;6376;48.182;-1.644;2024-01-25T00:42:43;13.20;95.30
12622;DHT22;6376;48.182;-1.644;2024-01-25T00:45:10;13.20;95.40
12622;DHT22;6376;48.182;-1.644;2024-01-25T00:47:36;13.20;95.50
12622;DHT22;6376;48.182;-1.644;2024-01-25T00:50:02;13.20;95.40
12622;DHT22;6376;48.182;-1.644;2024-01-25T00:52:28;13.20;95.40
12622;DHT22;6376;48.182;-1.644;2024-01-25T00:54:54;13.20;95.40
12622;DHT22;6376;48.182;-1.644;2024-01-25T00:57:19;13.20;95.40
12622;DHT22;6376;48.182;-1.644;2024-01-25T00:59:45;13.20;95.50
12622;DHT22;6376;48.182;-1.644;2024-01-25T01:02:12;13.20;95.40
12622;DHT22;6376;48.182;-1.644;2024-01-25T01:04:38;13.20;95.40
12622;DHT22;6376;48.182;-1.644;2024-01-25T01:07:04;13.20;95.50
12622;DHT22;6376;48.182;-1.644;2024-01-25T01:09:30;13.20;95.50
12622;DHT22;6376;48.182;-1.644;2024-01-25T01:11:56;13.20;95.40
12622;DHT22;6376;48.182;-1.644;2024-01-25T01:14:22;13.20;95.50
12622;DHT22;6376;48.182;-1.644;2024-01-25T01:16:47;13.20;95.50
12622;DHT22;6376;48.182;-1.644;2024-01-25T01:19:13;13.20;95.50
12622;DHT22;6376;48.182;-1.644;2024-01-25T01:21:39;13.20;95.50
12622;DHT22;6376;48.182;-1.644;2024-01-25T01:24:11;13.20;95.60
12622;DHT22;6376;48.182;-1.644;2024-01-25T01:26:37;13.20;95.50
12622;DHT22;6376;48.182;-1.644;2024-01-25T01:29:03;13.20;95.40
12622;DHT22;6376;48.182;-1.644;2024-01-25T01:31:29;13.20;95.50
12622;DHT22;6376;48.182;-1.644;2024-01-25T01:33:55;13.20;95.50
12622;DHT22;6376;48.182;-1.644;2024-01-25T01:36:20;13.20;95.50
12622;DHT22;6376;48.182;-1.644;2024-01-25T01:38:46;13.20;95.50
12622;DHT22;6376;48.182;-1.644;2024-01-25T01:41:12;13.20;95.30
12622;DHT22;6376;48.182;-1.644;2024-01-25T01:43:38;13.20;95.40
12622;DHT22;6376;48.182;-1.644;2024-01-25T01:46:09;13.20;95.40
12622;DHT22;6376;48.182;-1.644;2024-01-25T01:48:36;13.20;95.40
12622;DHT22;6376;48.182;-1.644;2024-01-25T01:51:02;13.20;95.40
12622;DHT22;6376;48.182;-1.644;2024-01-25T01:53:28;13.20;95.40
12622;DHT22;6376;48.182;-1.644;2024-01-25T01:55:53;13.20;95.50
12622;DHT22;6376;48.182;-1.644;2024-01-25T01:58:20;13.20;95.40
12622;DHT22;6376;48.182;-1.644;2024-01-25T02:00:49;13.20;95.50
12622;DHT22;6376;48.182;-1.644;2024-01-25T02:03:15;13.20;95.40
12622;DHT22;6376;48.182;-1.644;2024-01-25T02:05:41;13.20;95.40
12622;DHT22;6376;48.182;-1.644;2024-01-25T02:08:07;13.20;95.40
12622;DHT22;6376;48.182;-1.644;2024-01-25T02:10:34;13.20;95.40
12622;DHT22;6376;48.182;-1.644;2024-01-25T02:12:59;13.20;95.40
12622;DHT22;6376;48.182;-1.644;2024-01-25T02:15:25;13.20;95.50
12622;DHT22;6376;48.182;-1.644;2024-01-25T02:17:51;13.20;95.50
12622;DHT22;6376;48.182;-1.644;2024-01-25T02:20:18;13.20;95.50
12622;DHT22;6376;48.182;-1.644;2024-01-25T02:22:44;13.20;95.70
12622;DHT22;6376;48.182;-1.644;2024-01-25T02:25:10;13.20;95.50
12622;DHT22;6376;48.182;-1.644;2024-01-25T02:27:35;13.20;95.40
12622;DHT22;6376;48.182;-1.644;2024-01-25T02:30:05;13.20;95.50
12622;DHT22;6376;48.182;-1.644;2024-01-25T02:32:31;13.20;95.20
12622;DHT22;6376;48.182;-1.644;2024-01-25T02:34:56;13.20;95.40
12622;DHT22;6376;48.182;-1.644;2024-01-25T02:37:22;13.20;95.40
12622;DHT22;6376;48.182;-1.644;2024-01-25T02:39:48;13.20;95.30
12622;DHT22;6376;48.182;-1.644;2024-01-25T02:42:13;13.20;95.30
12622;DHT22;6376;48.182;-1.644;2024-01-25T02:44:42;13.20;95.30
12622;DHT22;6376;48.182;-1.644;2024-01-25T02:47:08;13.20;95.30
12622;DHT22;6376;48.182;-1.644;2024-01-25T02:49:33;13.20;95.40
12622;DHT22;6376;48.182;-1.644;2024-01-25T02:51:59;13.20;95.50
12622;DHT22;6376;48.182;-1.644;2024-01-25T02:54:25;13.20;95.20
12622;DHT22;6376;48.182;-1.644;2024-01-25T02:56:50;13.20;95.20
12622;DHT22;6376;48.182;-1.644;2024-01-25T02:59:16;13.20;95.30
12622;DHT22;6376;48.182;-1.644;2024-01-25T03:01:42;13.20;95.20
12622;DHT22;6376;48.182;-1.644;2024-01-25T03:04:08;13.10;95.30
12622;DHT22;6376;48.182;-1.644;2024-01-25T03:06:34;13.20;95.30
12622;DHT22;6376;48.182;-1.644;2024-01-25T03:08:59;13.20;95.30
12622;DHT22;6376;48.182;-1.644;2024-01-25T03:11:25;13.20;95.20
12622;DHT22;6376;48.182;-1.644;2024-01-25T03:13:51;13.10;95.30
12622;DHT22;6376;48.182;-1.644;2024-01-25T03:16:16;13.10;95.40
12622;DHT22;6376;48.182;-1.644;2024-01-25T03:18:42;13.10;95.40
12622;DHT22;6376;48.182;-1.644;2024-01-25T03:21:08;13.20;95.40
12622;DHT22;6376;48.182;-1.644;2024-01-25T03:23:34;13.10;95.40
12622;DHT22;6376;48.182;-1.644;2024-01-25T03:26:02;13.20;95.40
12622;DHT22;6376;48.182;-1.644;2024-01-25T03:28:27;13.20;95.40
12622;DHT22;6376;48.182;-1.644;2024-01-25T03:30:53;13.20;95.60
12622;DHT22;6376;48.182;-1.644;2024-01-25T03:33:18;13.20;95.40
12622;DHT22;6376;48.182;-1.644;2024-01-25T03:35:44;13.20;95.30
12622;DHT22;6376;48.182;-1.644;2024-01-25T03:38:10;13.20;95.30
12622;DHT22;6376;48.182;-1.644;2024-01-25T03:40:35;13.20;95.30
12622;DHT22;6376;48.182;-1.644;2024-01-25T03:43:01;13.20;95.30
12622;DHT22;6376;48.182;-1.644;2024-01-25T03:45:27;13.20;95.50
12622;DHT22;6376;48.182;-1.644;2024-01-25T03:47:53;13.10;94.80
12622;DHT22;6376;48.182;-1.644;2024-01-25T03:50:18;13.20;94.90
12622;DHT22;6376;48.182;-1.644;2024-01-25T03:52:44;13.20;94.80
12622;DHT22;6376;48.182;-1.644;2024-01-25T03:55:10;13.20;94.90
12622;DHT22;6376;48.182;-1.644;2024-01-25T03:57:35;13.20;94.80
12622;DHT22;6376;48.182;-1.644;2024-01-25T04:00:02;13.20;94.70
12622;DHT22;6376;48.182;-1.644;2024-01-25T04:02:28;13.20;94.60
12622;DHT22;6376;48.182;-1.644;2024-01-25T04:04:54;13.20;94.70
12622;DHT22;6376;48.182;-1.644;2024-01-25T04:07:19;13.20;94.80
12622;DHT22;6376;48.182;-1.644;2024-01-25T04:09:45;13.20;94.80
12622;DHT22;6376;48.182;-1.644;2024-01-25T04:12:11;13.20;94.90
12622;DHT22;6376;48.182;-1.644;2024-01-25T04:14:37;13.10;94.40
12622;DHT22;6376;48.182;-1.644;2024-01-25T04:17:02;13.10;94.50
12622;DHT22;6376;48.182;-1.644;2024-01-25T04:19:28;13.10;94.50
12622;DHT22;6376;48.182;-1.644;2024-01-25T04:21:53;13.10;94.60
12622;DHT22;6376;48.182;-1.644;2024-01-25T04:24:19;13.10;94.70
12622;DHT22;6376;48.182;-1.644;2024-01-25T04:26:45;13.10;94.70
12622;DHT22;6376;48.182;-1.644;2024-01-25T04:29:10;13.10;94.90
12622;DHT22;6376;48.182;-1.644;2024-01-25T04:31:45;13.00;94.90
12622;DHT22;6376;48.182;-1.644;2024-01-25T04:34:12;13.00;94.90
12622;DHT22;6376;48.182;-1.644;2024-01-25T04:36:38;13.10;95.00
12622;DHT22;6376;48.182;-1.644;2024-01-25T04:39:04;13.10;94.90
12622;DHT22;6376;48.182;-1.644;2024-01-25T04:41:30;13.10;94.80
12622;DHT22;6376;48.182;-1.644;2024-01-25T04:43:55;13.00;95.00
12622;DHT22;6376;48.182;-1.644;2024-01-25T04:46:21;13.00;94.80
12622;DHT22;6376;48.182;-1.644;2024-01-25T04:48:46;13.00;94.90
12622;DHT22;6376;48.182;-1.644;2024-01-25T04:51:16;13.00;94.90
12622;DHT22;6376;48.182;-1.644;2024-01-25T04:53:42;13.00;94.90
12622;DHT22;6376;48.182;-1.644;2024-01-25T04:56:08;13.00;94.70
12622;DHT22;6376;48.182;-1.644;2024-01-25T04:58:33;13.00;94.80
12622;DHT22;6376;48.182;-1.644;2024-01-25T05:00:59;13.10;94.70
12622;DHT22;6376;48.182;-1.644;2024-01-25T05:03:25;13.10;94.80
12622;DHT22;6376;48.182;-1.644;2024-01-25T05:05:51;13.10;94.70
12622;DHT22;6376;48.182;-1.644;2024-01-25T05:08:16;13.10;94.70
12622;DHT22;6376;48.182;-1.644;2024-01-25T05:10:42;13.10;94.70
12622;DHT22;6376;48.182;-1.644;2024-01-25T05:13:08;13.10;94.70
12622;DHT22;6376;48.182;-1.644;2024-01-25T05:15:34;13.10;94.70
12622;DHT22;6376;48.182;-1.644;2024-01-25T05:18:01;13.10;94.60
12622;DHT22;6376;48.182;-1.644;2024-01-25T05:20:26;13.10;94.70
12622;DHT22;6376;48.182;-1.644;2024-01-25T05:23:01;13.10;94.50
12622;DHT22;6376;48.182;-1.644;2024-01-25T05:25:27;13.10;94.60
12622;DHT22;6376;48.182;-1.644;2024-01-25T05:27:53;13.10;94.70
12622;DHT22;6376;48.182;-1.644;2024-01-25T05:30:20;13.10;94.50
12622;DHT22;6376;48.182;-1.644;2024-01-25T05:32:46;13.10;94.50
12622;DHT22;6376;48.182;-1.644;2024-01-25T05:35:14;13.10;94.60
12622;DHT22;6376;48.182;-1.644;2024-01-25T05:37:39;13.10;94.70
12622;DHT22;6376;48.182;-1.644;2024-01-25T05:40:06;13.10;94.50
12622;DHT22;6376;48.182;-1.644;2024-01-25T05:42:31;13.10;94.50
12622;DHT22;6376;48.182;-1.644;2024-01-25T05:44:58;13.10;94.60
12622;DHT22;6376;48.182;-1.644;2024-01-25T05:47:23;13.10;94.60
12622;DHT22;6376;48.182;-1.644;2024-01-25T05:49:49;13.10;94.50
12622;DHT22;6376;48.182;-1.644;2024-01-25T05:52:15;13.10;94.60
12622;DHT22;6376;48.182;-1.644;2024-01-25T05:54:40;13.10;94.60
12622;DHT22;6376;48.182;-1.644;2024-01-25T05:57:06;13.10;94.50
12622;DHT22;6376;48.182;-1.644;2024-01-25T05:59:32;13.10;94.50
12622;DHT22;6376;48.182;-1.644;2024-01-25T06:01:57;13.10;94.50
12622;DHT22;6376;48.182;-1.644;2024-01-25T06:04:23;13.10;94.50
12622;DHT22;6376;48.182;-1.644;2024-01-25T06:06:48;13.10;94.60
12622;DHT22;6376;48.182;-1.644;2024-01-25T06:09:14;13.10;94.50
12622;DHT22;6376;48.182;-1.644;2024-01-25T06:11:40;13.10;94.50
12622;DHT22;6376;48.182;-1.644;2024-01-25T06:14:06;13.10;94.50
12622;DHT22;6376;48.182;-1.644;2024-01-25T06:16:32;13.10;94.50
12622;DHT22;6376;48.182;-1.644;2024-01-25T06:18:57;13.10;94.50
12622;DHT22;6376;48.182;-1.644;2024-01-25T06:21:25;13.00;94.50
12622;DHT22;6376;48.182;-1.644;2024-01-25T06:23:51;13.10;94.50
12622;DHT22;6376;48.182;-1.644;2024-01-25T06:26:17;13.10;94.50
12622;DHT22;6376;48.182;-1.644;2024-01-25T06:28:42;13.10;94.50
12622;DHT22;6376;48.182;-1.644;2024-01-25T06:31:08;13.10;94.60
12622;DHT22;6376;48.182;-1.644;2024-01-25T06:33:33;13.10;94.70
12622;DHT22;6376;48.182;-1.644;2024-01-25T06:35:59;13.10;94.50
12622;DHT22;6376;48.182;-1.644;2024-01-25T06:38:25;13.10;94.50
12622;DHT22;6376;48.182;-1.644;2024-01-25T06:40:51;13.10;94.50
12622;DHT22;6376;48.182;-1.644;2024-01-25T06:43:16;13.10;94.50
12622;DHT22;6376;48.182;-1.644;2024-01-25T06:45:42;13.00;94.50
12622;DHT22;6376;48.182;-1.644;2024-01-25T06:48:08;13.10;94.60
12622;DHT22;6376;48.182;-1.644;2024-01-25T06:50:36;13.10;94.60
12622;DHT22;6376;48.182;-1.644;2024-01-25T06:53:03;13.10;94.50
12622;DHT22;6376;48.182;-1.644;2024-01-25T06:55:29;13.00;94.50
12622;DHT22;6376;48.182;-1.644;2024-01-25T06:57:54;13.10;94.50
12622;DHT22;6376;48.182;-1.644;2024-01-25T07:00:20;13.10;94.60
12622;DHT22;6376;48.182;-1.644;2024-01-25T07:02:46;13.00;94.50
12622;DHT22;6376;48.182;-1.644;2024-01-25T07:05:12;13.00;94.60
12622;DHT22;6376;48.182;-1.644;2024-01-25T07:07:38;13.10;94.40
12622;DHT22;6376;48.182;-1.644;2024-01-25T07:10:06;13.10;94.20
12622;DHT22;6376;48.182;-1.644;2024-01-25T07:12:31;13.10;94.20
12622;DHT22;6376;48.182;-1.644;2024-01-25T07:14:57;13.10;94.50
12622;DHT22;6376;48.182;-1.644;2024-01-25T07:17:23;13.00;94.40
12622;DHT22;6376;48.182;-1.644;2024-01-25T07:19:49;13.00;94.50
12622;DHT22;6376;48.182;-1.644;2024-01-25T07:22:14;13.00;94.50
12622;DHT22;6376;48.182;-1.644;2024-01-25T07:24:41;13.00;94.50
12622;DHT22;6376;48.182;-1.644;2024-01-25T07:27:06;13.10;94.50
12622;DHT22;6376;48.182;-1.644;2024-01-25T07:29:32;13.10;94.50
12622;DHT22;6376;48.182;-1.644;2024-01-25T07:31:58;13.00;94.50
12622;DHT22;6376;48.182;-1.644;2024-01-25T07:34:23;13.10;94.60
12622;DHT22;6376;48.182;-1.644;2024-01-25T07:36:49;13.00;94.50
12622;DHT22;6376;48.182;-1.644;2024-01-25T07:39:14;13.00;94.50
12622;DHT22;6376;48.182;-1.644;2024-01-25T07:41:40;13.00;94.50
12622;DHT22;6376;48.182;-1.644;2024-01-25T07:44:06;13.10;94.60
12622;DHT22;6376;48.182;-1.644;2024-01-25T07:46:31;13.10;94.50
12622;DHT22;6376;48.182;-1.644;2024-01-25T07:48:57;13.10;94.50
12622;DHT22;6376;48.182;-1.644;2024-01-25T07:51:22;13.10;94.40
12622;DHT22;6376;48.182;-1.644;2024-01-25T07:53:48;13.00;94.50
12622;DHT22;6376;48.182;-1.644;2024-01-25T07:56:14;13.10;94.50
12622;DHT22;6376;48.182;-1.644;2024-01-25T07:58:40;13.00;94.50
12622;DHT22;6376;48.182;-1.644;2024-01-25T08:01:06;13.00;94.50
12622;DHT22;6376;48.182;-1.644;2024-01-25T08:03:32;13.00;94.60
12622;DHT22;6376;48.182;-1.644;2024-01-25T08:05:59;13.00;94.60
12622;DHT22;6376;48.182;-1.644;2024-01-25T08:08:25;13.00;94.50
12622;DHT22;6376;48.182;-1.644;2024-01-25T08:10:51;13.00;94.50
12622;DHT22;6376;48.182;-1.644;2024-01-25T08:13:16;13.00;94.60
12622;DHT22;6376;48.182;-1.644;2024-01-25T08:15:42;13.00;94.60
12622;DHT22;6376;48.182;-1.644;2024-01-25T08:18:07;13.00;94.60
12622;DHT22;6376;48.182;-1.644;2024-01-25T08:20:33;13.00;94.90
12622;DHT22;6376;48.182;-1.644;2024-01-25T08:23:00;13.00;94.70
12622;DHT22;6376;48.182;-1.644;2024-01-25T08:25:26;13.00;94.60
12622;DHT22;6376;48.182;-1.644;2024-01-25T08:27:52;13.00;94.70
12622;DHT22;6376;48.182;-1.644;2024-01-25T08:30:17;13.00;94.60
12622;DHT22;6376;48.182;-1.644;2024-01-25T08:32:43;13.10;94.60
12622;DHT22;6376;48.182;-1.644;2024-01-25T08:35:09;13.00;94.70
12622;DHT22;6376;48.182;-1.644;2024-01-25T08:37:34;13.00;94.50
12622;DHT22;6376;48.182;-1.644;2024-01-25T08:40:03;13.10;94.60
12622;DHT22;6376;48.182;-1.644;2024-01-25T08:42:31;13.00;94.50
12622;DHT22;6376;48.182;-1.644;2024-01-25T08:44:57;13.10;94.60
12622;DHT22;6376;48.182;-1.644;2024-01-25T08:47:23;13.00;94.60
12622;DHT22;6376;48.182;-1.644;2024-01-25T08:49:49;13.00;94.70
12622;DHT22;6376;48.182;-1.644;2024-01-25T08:52:14;13.00;94.80
12622;DHT22;6376;48.182;-1.644;2024-01-25T08:54:40;13.00;94.50
12622;DHT22;6376;48.182;-1.644;2024-01-25T08:57:07;13.00;94.70
12622;DHT22;6376;48.182;-1.644;2024-01-25T08:59:34;13.00;94.60
12622;DHT22;6376;48.182;-1.644;2024-01-25T09:02:06;13.00;94.70
12622;DHT22;6376;48.182;-1.644;2024-01-25T09:04:32;13.00;94.60
12622;DHT22;6376;48.182;-1.644;2024-01-25T09:06:59;13.00;94.60
12622;DHT22;6376;48.182;-1.644;2024-01-25T09:09:25;13.00;94.60
12622;DHT22;6376;48.182;-1.644;2024-01-25T09:11:50;13.00;94.50
12622;DHT22;6376;48.182;-1.644;2024-01-25T09:14:16;13.00;94.60
12622;DHT22;6376;48.182;-1.644;2024-01-25T09:16:42;13.00;94.60
12622;DHT22;6376;48.182;-1.644;2024-01-25T09:19:08;13.00;94.60
12622;DHT22;6376;48.182;-1.644;2024-01-25T09:21:33;13.00;94.50
12622;DHT22;6376;48.182;-1.644;2024-01-25T09:23:59;13.00;94.60
12622;DHT22;6376;48.182;-1.644;2024-01-25T09:26:25;13.00;94.50
12622;DHT22;6376;48.182;-1.644;2024-01-25T09:28:51;13.00;94.50
12622;DHT22;6376;48.182;-1.644;2024-01-25T09:31:16;13.00;94.70
12622;DHT22;6376;48.182;-1.644;2024-01-25T09:33:42;13.10;94.60
12622;DHT22;6376;48.182;-1.644;2024-01-25T09:36:07;13.00;94.50
12622;DHT22;6376;48.182;-1.644;2024-01-25T09:38:33;13.00;94.50
12622;DHT22;6376;48.182;-1.644;2024-01-25T09:40:59;13.10;94.60
12622;DHT22;6376;48.182;-1.644;2024-01-25T09:43:26;13.10;94.60
12622;DHT22;6376;48.182;-1.644;2024-01-25T09:45:55;13.10;94.60
12622;DHT22;6376;48.182;-1.644;2024-01-25T09:48:21;13.10;94.60
12622;DHT22;6376;48.182;-1.644;2024-01-25T09:50:48;13.10;94.50
12622;DHT22;6376;48.182;-1.644;2024-01-25T09:53:23;13.10;94.80
12622;DHT22;6376;48.182;-1.644;2024-01-25T09:55:58;13.10;94.40
12622;DHT22;6376;48.182;-1.644;2024-01-25T09:58:37;13.10;94.50
12622;DHT22;6376;48.182;-1.644;2024-01-25T10:01:03;13.00;94.50
12622;DHT22;6376;48.182;-1.644;2024-01-25T10:03:29;13.10;94.60
12622;DHT22;6376;48.182;-1.644;2024-01-25T10:05:56;13.10;94.60
12622;DHT22;6376;48.182;-1.644;2024-01-25T10:08:21;13.10;94.50
12622;DHT22;6376;48.182;-1.644;2024-01-25T10:10:49;13.00;94.60
12622;DHT22;6376;48.182;-1.644;2024-01-25T10:13:15;13.10;94.60
12622;DHT22;6376;48.182;-1.644;2024-01-25T10:15:41;13.10;94.60
12622;DHT22;6376;48.182;-1.644;2024-01-25T10:18:07;13.10;94.50
12622;DHT22;6376;48.182;-1.644;2024-01-25T10:20:47;13.10;94.50
12622;DHT22;6376;48.182;-1.644;2024-01-25T10:23:13;13.10;94.50
12622;DHT22;6376;48.182;-1.644;2024-01-25T10:25:38;13.10;94.50
12622;DHT22;6376;48.182;-1.644;2024-01-25T10:28:05;13.10;94.60
12622;DHT22;6376;48.182;-1.644;2024-01-25T10:30:35;13.10;94.50
12622;DHT22;6376;48.182;-1.644;2024-01-25T10:33:02;13.10;94.50
12622;DHT22;6376;48.182;-1.644;2024-01-25T10:35:29;13.10;94.70
12622;DHT22;6376;48.182;-1.644;2024-01-25T10:37:55;13.10;94.50
12622;DHT22;6376;48.182;-1.644;2024-01-25T10:40:21;13.10;94.40
12622;DHT22;6376;48.182;-1.644;2024-01-25T10:42:47;13.10;94.50
12622;DHT22;6376;48.182;-1.644;2024-01-25T10:45:14;13.20;94.50
12622;DHT22;6376;48.182;-1.644;2024-01-25T10:47:40;13.10;94.50
12622;DHT22;6376;48.182;-1.644;2024-01-25T10:50:11;13.10;94.40
12622;DHT22;6376;48.182;-1.644;2024-01-25T10:52:39;13.20;94.70
12622;DHT22;6376;48.182;-1.644;2024-01-25T10:55:06;13.10;94.50
12622;DHT22;6376;48.182;-1.644;2024-01-25T10:57:42;13.10;94.70
12622;DHT22;6376;48.182;-1.644;2024-01-25T11:00:13;13.20;94.60
12622;DHT22;6376;48.182;-1.644;2024-01-25T11:02:44;13.20;94.80
12622;DHT22;6376;48.182;-1.644;2024-01-25T11:05:15;13.20;94.60
12622;DHT22;6376;48.182;-1.644;2024-01-25T11:07:45;13.20;94.70
12622;DHT22;6376;48.182;-1.644;2024-01-25T11:10:17;13.20;94.80
12622;DHT22;6376;48.182;-1.644;2024-01-25T11:12:56;13.20;94.80
12622;DHT22;6376;48.182;-1.644;2024-01-25T11:15:23;13.20;94.80
12622;DHT22;6376;48.182;-1.644;2024-01-25T11:17:54;13.20;94.70
12622;DHT22;6376;48.182;-1.644;2024-01-25T11:20:22;13.20;94.80
12622;DHT22;6376;48.182;-1.644;2024-01-25T11:22:48;13.20;95.00
12622;DHT22;6376;48.182;-1.644;2024-01-25T11:25:19;13.20;94.90
12622;DHT22;6376;48.182;-1.644;2024-01-25T11:27:46;13.20;94.90
12622;DHT22;6376;48.182;-1.644;2024-01-25T11:30:13;13.20;94.70
12622;DHT22;6376;48.182;-1.644;2024-01-25T11:32:39;13.20;95.00
12622;DHT22;6376;48.182;-1.644;2024-01-25T11:35:05;13.20;94.90
12622;DHT22;6376;48.182;-1.644;2024-01-25T11:37:34;13.20;94.70
12622;DHT22;6376;48.182;-1.644;2024-01-25T11:39:59;13.20;94.80
12622;DHT22;6376;48.182;-1.644;2024-01-25T11:42:25;13.20;94.70
12622;DHT22;6376;48.182;-1.644;2024-01-25T11:44:50;13.20;95.10
12622;DHT22;6376;48.182;-1.644;2024-01-25T11:47:16;13.20;94.90
12622;DHT22;6376;48.182;-1.644;2024-01-25T11:49:42;13.20;95.10
12622;DHT22;6376;48.182;-1.644;2024-01-25T11:52:07;13.20;95.00
12622;DHT22;6376;48.182;-1.644;2024-01-25T11:54:33;13.20;94.80
12622;DHT22;6376;48.182;-1.644;2024-01-25T11:56:59;13.20;95.00
12622;DHT22;6376;48.182;-1.644;2024-01-25T11:59:24;13.20;94.80
12622;DHT22;6376;48.182;-1.644;2024-01-25T12:01:50;13.20;94.90
12622;DHT22;6376;48.182;-1.644;2024-01-25T12:04:16;13.20;94.90
12622;DHT22;6376;48.182;-1.644;2024-01-25T12:06:42;13.20;94.80
12622;DHT22;6376;48.182;-1.644;2024-01-25T12:09:10;13.20;95.00
12622;DHT22;6376;48.182;-1.644;2024-01-25T12:11:38;13.20;94.90
12622;DHT22;6376;48.182;-1.644;2024-01-25T12:14:07;13.20;94.90
12622;DHT22;6376;48.182;-1.644;2024-01-25T12:16:33;13.20;95.10
12622;DHT22;6376;48.182;-1.644;2024-01-25T12:18:59;13.20;95.00
12622;DHT22;6376;48.182;-1.644;2024-01-25T12:21:25;13.20;94.80
12622;DHT22;6376;48.182;-1.644;2024-01-25T12:23:50;13.20;95.00
12622;DHT22;6376;48.182;-1.644;2024-01-25T12:26:16;13.20;95.00
12622;DHT22;6376;48.182;-1.644;2024-01-25T12:28:42;13.20;95.10
12622;DHT22;6376;48.182;-1.644;2024-01-25T12:31:08;13.20;95.00
12622;DHT22;6376;48.182;-1.644;2024-01-25T12:33:34;13.20;95.20
12622;DHT22;6376;48.182;-1.644;2024-01-25T12:36:02;13.20;94.90
12622;DHT22;6376;48.182;-1.644;2024-01-25T12:38:28;13.20;95.00
12622;DHT22;6376;48.182;-1.644;2024-01-25T12:40:56;13.20;95.00
12622;DHT22;6376;48.182;-1.644;2024-01-25T12:43:22;13.30;95.10
12622;DHT22;6376;48.182;-1.644;2024-01-25T12:45:48;13.30;95.20
12622;DHT22;6376;48.182;-1.644;2024-01-25T12:48:15;13.20;95.00
12622;DHT22;6376;48.182;-1.644;2024-01-25T12:50:41;13.30;95.20
12622;DHT22;6376;48.182;-1.644;2024-01-25T12:53:07;13.30;94.80
12622;DHT22;6376;48.182;-1.644;2024-01-25T12:55:35;13.30;95.00
12622;DHT22;6376;48.182;-1.644;2024-01-25T12:58:01;13.30;95.10
12622;DHT22;6376;48.182;-1.644;2024-01-25T13:00:26;13.30;95.20
12622;DHT22;6376;48.182;-1.644;2024-01-25T13:02:52;13.30;95.40
12622;DHT22;6376;48.182;-1.644;2024-01-25T13:05:20;13.30;95.10
12622;DHT22;6376;48.182;-1.644;2024-01-25T13:07:46;13.30;95.20
12622;DHT22;6376;48.182;-1.644;2024-01-25T13:10:11;13.30;95.00
12622;DHT22;6376;48.182;-1.644;2024-01-25T13:12:38;13.30;94.80
12622;DHT22;6376;48.182;-1.644;2024-01-25T13:15:05;13.30;94.90
12622;DHT22;6376;48.182;-1.644;2024-01-25T13:17:30;13.30;94.90
12622;DHT22;6376;48.182;-1.644;2024-01-25T13:19:57;13.30;94.80
12622;DHT22;6376;48.182;-1.644;2024-01-25T13:22:23;13.30;94.60
12622;DHT22;6376;48.182;-1.644;2024-01-25T13:24:50;13.30;94.50
12622;DHT22;6376;48.182;-1.644;2024-01-25T13:27:16;13.30;94.80
12622;DHT22;6376;48.182;-1.644;2024-01-25T13:29:42;13.30;94.80
12622;DHT22;6376;48.182;-1.644;2024-01-25T13:32:08;13.30;94.90
12622;DHT22;6376;48.182;-1.644;2024-01-25T13:34:34;13.30;95.00
12622;DHT22;6376;48.182;-1.644;2024-01-25T13:36:59;13.30;94.90
12622;DHT22;6376;48.182;-1.644;2024-01-25T13:39:25;13.30;94.90
12622;DHT22;6376;48.182;-1.644;2024-01-25T13:41:51;13.30;94.80
12622;DHT22;6376;48.182;-1.644;2024-01-25T13:44:17;13.30;94.90
12622;DHT22;6376;48.182;-1.644;2024-01-25T13:46:42;13.40;94.90
12622;DHT22;6376;48.182;-1.644;2024-01-25T13:49:08;13.30;94.90
12622;DHT22;6376;48.182;-1.644;2024-01-25T13:51:34;13.40;94.90
12622;DHT22;6376;48.182;-1.644;2024-01-25T13:54:00;13.40;94.80
12622;DHT22;6376;48.182;-1.644;2024-01-25T13:56:25;13.40;95.00
12622;DHT22;6376;48.182;-1.644;2024-01-25T13:58:51;13.40;94.90
12622;DHT22;6376;48.182;-1.644;2024-01-25T14:01:17;13.40;94.90
12622;DHT22;6376;48.182;-1.644;2024-01-25T14:03:43;13.40;94.50
12622;DHT22;6376;48.182;-1.644;2024-01-25T14:06:09;13.40;94.90
12622;DHT22;6376;48.182;-1.644;2024-01-25T14:08:37;13.40;94.80
12622;DHT22;6376;48.182;-1.644;2024-01-25T14:11:03;13.40;94.60
12622;DHT22;6376;48.182;-1.644;2024-01-25T14:13:31;13.40;94.70
12622;DHT22;6376;48.182;-1.644;2024-01-25T14:15:57;13.40;94.50
12622;DHT22;6376;48.182;-1.644;2024-01-25T14:18:24;13.40;94.60
12622;DHT22;6376;48.182;-1.644;2024-01-25T14:20:50;13.50;94.80
12622;DHT22;6376;48.182;-1.644;2024-01-25T14:23:15;13.40;94.70
12622;DHT22;6376;48.182;-1.644;2024-01-25T14:25:41;13.50;94.80
12622;DHT22;6376;48.182;-1.644;2024-01-25T14:28:07;13.50;94.80
12622;DHT22;6376;48.182;-1.644;2024-01-25T14:30:32;13.50;94.80
12622;DHT22;6376;48.182;-1.644;2024-01-25T14:32:58;13.50;94.80
12622;DHT22;6376;48.182;-1.644;2024-01-25T14:35:23;13.50;94.50
12622;DHT22;6376;48.182;-1.644;2024-01-25T14:37:54;13.50;94.70
12622;DHT22;6376;48.182;-1.644;2024-01-25T14:40:20;13.50;94.60
12622;DHT22;6376;48.182;-1.644;2024-01-25T14:42:46;13.50;94.60
12622;DHT22;6376;48.182;-1.644;2024-01-25T14:45:11;13.40;94.50
12622;DHT22;6376;48.182;-1.644;2024-01-25T14:47:37;13.40;94.50
12622;DHT22;6376;48.182;-1.644;2024-01-25T14:50:03;13.40;94.50
12622;DHT22;6376;48.182;-1.644;2024-01-25T14:52:28;13.40;94.60
12622;DHT22;6376;48.182;-1.644;2024-01-25T14:54:54;13.40;94.60
12622;DHT22;6376;48.182;-1.644;2024-01-25T14:57:20;13.40;94.80
12622;DHT22;6376;48.182;-1.644;2024-01-25T14:59:45;13.40;94.80
12622;DHT22;6376;48.182;-1.644;2024-01-25T15:02:11;13.40;94.80
12622;DHT22;6376;48.182;-1.644;2024-01-25T15:04:37;13.40;94.80
12622;DHT22;6376;48.182;-1.644;2024-01-25T15:07:03;13.40;94.90
12622;DHT22;6376;48.182;-1.644;2024-01-25T15:09:28;13.40;94.90
12622;DHT22;6376;48.182;-1.644;2024-01-25T15:11:54;13.40;95.00
12622;DHT22;6376;48.182;-1.644;2024-01-25T15:14:20;13.40;94.90
12622;DHT22;6376;48.182;-1.644;2024-01-25T15:16:45;13.40;94.80
12622;DHT22;6376;48.182;-1.644;2024-01-25T15:19:11;13.40;94.70
12622;DHT22;6376;48.182;-1.644;2024-01-25T15:21:37;13.40;94.70
12622;DHT22;6376;48.182;-1.644;2024-01-25T15:24:03;13.40;94.60